Anapa, Russia

11:37 PM MSK on August 25, 2016 (GMT +0300)
Vityazevo | | Change Station

Elev 174 ft 45.00 °N, 37.35 °E | Updated 37 minutes ago

Light Rain
Light Rain
73 °F
Feels Like 73 °F
N
2
Wind Variable Wind from North

Today
High -- | Low -- °F
--% Chance of Precip.
Yesterday
High -- | Low -- °F
Precip. -- in
Pressure 29.89 in
Visibility 6.2 miles
Clouds
Dew Point 68 °F
Humidity 83%
Rainfall 0.00 in
Snow Depth Not available.
5:44 AM 7:19 PM
Last Quarter, 42% visible
METAR URKA 252000Z 35001MPS 9999 -RA NSC 23/20 Q1012 R04/150065 RMK QFE755/1007
Pressure 29.89 in
Visibility 6.2 miles
Clouds
Dew Point 68 °F
Humidity 83%
Rainfall 0.00 in
Snow Depth Not available.
5:44 AM 7:19 PM
Last Quarter, 42% visible
METAR URKA 252000Z 35001MPS 9999 -RA NSC 23/20 Q1012 R04/150065 RMK QFE755/1007

10-Day Weather Forecast

×

Almanac

Astronomy

Aug. 25, 2016 Rise Set
Actual Time
Civil Twilight
Nautical Twilight
Astronomical Twilight
Moon
Length of Visible Light
Length of Day
Tomorrow will be .
, % of the Moon is Illuminated

Today's Extremes

Country Highs Country Lows

Community

WunderPhotos

Upload Photos

1,934,930 photos uploaded!

WunderBlog® & News

Nearby

Air Quality

  Air Quality AQ Index Pollutant
Not available.

Snow Depth

Station Depth Elevation

Earthquake Activity

City Distance Mag. Time & Date
Minimum magnitude displayed is 2.5.

Coastal Water Temperatures

Place Temperature

Stations

Nearby Weather Stations

Station Location Temp. Windchill Dew Point Humidity Wind Precip. Elev Updated Type